createdAt,value
2024-01-12T04:58:42.299Z,70.61
2024-01-12T05:01:45.191Z,70.61
2024-01-12T05:04:47.488Z,100.00
2024-01-12T05:07:52.625Z,100.00
2024-01-12T05:10:55.735Z,100.00
2024-01-12T05:13:58.237Z,94.68
2024-01-12T05:17:00.437Z,100.00
2024-01-12T05:20:10.151Z,76.27
2024-01-12T05:23:12.388Z,100.00
2024-01-12T05:26:15.603Z,100.00
2024-01-12T05:29:17.890Z,81.28
2024-01-12T05:32:20.430Z,100.00
2024-01-12T05:35:22.885Z,83.50
2024-01-12T05:38:25.380Z,97.57
2024-01-12T05:41:27.747Z,73.39
2024-01-12T05:44:30.865Z,71.82
2024-01-12T05:47:33.942Z,100.00
2024-01-12T05:50:36.608Z,90.45
2024-01-12T05:53:38.940Z,100.00
2024-01-12T05:56:41.529Z,75.43
2024-01-12T05:59:43.756Z,95.83
2024-01-12T06:02:46.265Z,100.00
2024-01-12T06:05:51.518Z,84.68
2024-01-12T06:08:53.914Z,100.00
2024-01-12T06:11:58.452Z,76.22
2024-01-12T06:15:01.205Z,87.97
2024-01-12T06:18:04.271Z,85.81
2024-01-12T06:21:06.655Z,74.36
2024-01-12T06:24:12.911Z,74.68
2024-01-12T06:27:15.281Z,73.14
2024-01-12T06:30:18.040Z,80.40
2024-01-12T06:33:20.415Z,85.51
2024-01-12T06:36:23.154Z,78.66
2024-01-12T06:39:25.476Z,76.23
2024-01-12T06:42:29.257Z,71.94
2024-01-12T06:45:31.500Z,91.31
2024-01-12T06:48:35.514Z,77.33
2024-01-12T06:51:37.797Z,87.11
2024-01-12T06:54:44.571Z,75.39
2024-01-12T06:57:48.123Z,100.00
2024-01-12T07:00:50.784Z,84.36
2024-01-12T07:03:53.288Z,74.97
2024-01-12T07:06:55.875Z,77.83
2024-01-12T07:09:58.132Z,100.00
2024-01-12T07:13:00.602Z,85.19
2024-01-12T07:16:03.061Z,97.22
2024-01-12T07:19:06.255Z,100.00
2024-01-12T07:22:08.555Z,85.60
2024-01-12T07:25:11.111Z,76.93
2024-01-12T07:28:13.298Z,73.36
2024-01-12T07:31:15.824Z,99.44
2024-01-12T07:34:18.841Z,80.81
2024-01-12T07:37:21.449Z,100.00
2024-01-12T07:40:23.722Z,72.67
2024-01-12T07:43:28.225Z,86.98
2024-01-12T07:46:30.998Z,97.35
2024-01-12T07:49:34.427Z,82.71
2024-01-12T07:52:36.590Z,80.73
2024-01-12T07:55:39.496Z,73.69
2024-01-12T07:58:41.625Z,78.09
2024-01-12T08:01:45.452Z,100.00
2024-01-12T08:04:47.933Z,78.70
2024-01-12T08:07:50.890Z,100.00
2024-01-12T08:10:53.352Z,84.49
2024-01-12T08:13:55.925Z,78.11
2024-01-12T08:16:58.358Z,78.09
2024-01-12T08:20:00.548Z,89.35
2024-01-12T08:23:03.147Z,75.57
2024-01-12T08:26:05.924Z,70.53
2024-01-12T08:29:08.781Z,66.58
2024-01-12T08:32:10.926Z,86.12
2024-01-12T08:35:13.668Z,67.89
2024-01-12T08:38:15.860Z,100.00
2024-01-12T08:41:18.517Z,85.24
2024-01-12T08:44:20.723Z,100.00
2024-01-12T08:47:23.373Z,67.39
2024-01-12T08:50:26.212Z,64.26
2024-01-12T08:53:29.423Z,64.50
2024-01-12T08:56:31.817Z,65.04
2024-01-12T08:59:34.434Z,99.23
2024-01-12T09:02:36.735Z,88.35
2024-01-12T09:05:39.418Z,62.06
2024-01-12T09:08:42.147Z,61.88
2024-01-12T09:11:46.027Z,61.67
2024-01-12T09:14:48.471Z,64.37
2024-01-12T09:17:51.120Z,61.21
2024-01-12T09:20:53.546Z,64.27
2024-01-12T09:23:56.129Z,68.34
2024-01-12T09:26:58.391Z,63.10
2024-01-12T09:30:01.040Z,63.65
2024-01-12T09:33:03.696Z,64.11
2024-01-12T09:36:06.818Z,65.04
2024-01-12T09:39:15.595Z,65.19
2024-01-12T09:42:22.569Z,63.58
2024-01-12T09:45:26.602Z,59.57
2024-01-12T09:48:30.892Z,61.29
2024-01-12T09:51:33.269Z,62.65
2024-01-12T09:54:36.246Z,61.57
2024-01-12T09:57:40.444Z,61.34
2024-01-12T10:00:44.385Z,58.73
2024-01-12T10:03:48.572Z,73.21
2024-01-12T10:06:50.970Z,81.81
2024-01-12T10:09:53.979Z,61.10
2024-01-12T10:12:56.361Z,58.39
2024-01-12T10:15:58.864Z,62.29
2024-01-12T10:19:01.440Z,59.36
2024-01-12T10:22:04.890Z,59.45
2024-01-12T10:25:08.293Z,68.98
2024-01-12T10:28:18.100Z,80.55
2024-01-12T10:31:21.009Z,62.86
2024-01-12T10:34:25.710Z,63.25
2024-01-12T10:37:28.066Z,58.02
2024-01-12T10:40:30.727Z,62.40
2024-01-12T10:43:37.591Z,72.45
2024-01-12T10:46:46.984Z,100.00
2024-01-12T10:50:00.472Z,69.95
2024-01-12T10:53:15.333Z,67.76
2024-01-12T10:56:18.715Z,93.60
2024-01-12T10:59:23.087Z,92.49
2024-01-12T11:02:26.052Z,67.58
2024-01-12T11:05:29.708Z,63.09
2024-01-12T11:08:32.505Z,58.96
2024-01-12T11:11:44.738Z,56.28
2024-01-12T11:14:47.103Z,69.13
2024-01-12T11:17:49.781Z,70.02
2024-01-12T11:21:03.359Z,64.43
2024-01-12T11:24:06.820Z,59.13
2024-01-12T11:27:11.986Z,63.01
2024-01-12T11:30:18.322Z,75.82
2024-01-12T11:33:20.761Z,57.30
2024-01-12T11:36:28.222Z,62.08
2024-01-12T11:39:35.141Z,57.17
2024-01-12T11:42:39.236Z,62.75
2024-01-12T11:45:42.928Z,58.48
2024-01-12T11:48:46.190Z,57.32
2024-01-12T11:51:48.789Z,65.38
2024-01-12T11:54:51.734Z,60.23
2024-01-12T11:57:55.490Z,91.33
2024-01-12T12:00:57.925Z,59.13
2024-01-12T12:04:00.448Z,58.71
2024-01-12T12:07:02.767Z,58.37
2024-01-12T12:10:06.395Z,58.27
2024-01-12T12:13:12.083Z,62.17
2024-01-12T12:16:15.965Z,62.15
2024-01-12T12:19:18.432Z,58.75
2024-01-12T12:22:21.383Z,59.67
2024-01-12T12:25:23.701Z,61.31
2024-01-12T12:28:26.193Z,58.84
2024-01-12T12:31:29.085Z,59.79
2024-01-12T12:34:35.131Z,60.88
2024-01-12T12:37:37.804Z,62.48
2024-01-12T12:40:40.374Z,63.36
2024-01-12T12:43:44.914Z,66.86
2024-01-12T12:46:47.409Z,72.36
2024-01-12T12:49:49.759Z,61.17
2024-01-12T12:52:52.692Z,62.43
2024-01-12T12:55:55.429Z,66.38
2024-01-12T12:58:58.083Z,61.18
2024-01-12T13:02:04.147Z,67.21
2024-01-12T13:05:07.503Z,72.12
2024-01-12T13:08:09.781Z,62.12
2024-01-12T13:11:12.390Z,60.36
2024-01-12T13:14:14.920Z,59.61
2024-01-12T13:17:17.605Z,59.97
2024-01-12T13:20:22.307Z,60.10
2024-01-12T13:23:25.035Z,61.33
2024-01-12T13:26:28.044Z,59.19
2024-01-12T13:29:30.493Z,58.56
2024-01-12T13:32:32.837Z,58.19
2024-01-12T13:35:35.643Z,58.34
2024-01-12T13:38:37.881Z,57.04
2024-01-12T13:41:40.958Z,78.07
2024-01-12T13:44:43.677Z,56.97
2024-01-12T13:47:46.340Z,60.11
2024-01-12T13:50:48.706Z,57.71
2024-01-12T13:53:53.868Z,59.70
2024-01-12T13:56:56.047Z,66.18
2024-01-12T13:59:58.744Z,57.73
2024-01-12T14:03:01.126Z,58.40
2024-01-12T14:06:04.106Z,60.00
2024-01-12T14:09:07.956Z,56.86
2024-01-12T14:12:11.070Z,63.61
2024-01-12T14:15:13.416Z,54.83
2024-01-12T14:18:16.135Z,55.21
2024-01-12T14:21:18.424Z,54.51
2024-01-12T14:24:20.917Z,55.97
2024-01-12T14:27:23.182Z,58.73
2024-01-12T14:30:25.753Z,56.78
2024-01-12T14:33:31.032Z,66.48
2024-01-12T14:36:33.741Z,57.30
2024-01-12T14:39:35.977Z,59.37
2024-01-12T14:42:39.226Z,61.81
2024-01-12T14:45:41.379Z,57.63
2024-01-12T14:48:44.120Z,57.99
2024-01-12T14:51:47.302Z,57.94
2024-01-12T14:54:50.455Z,58.71
2024-01-12T14:57:52.679Z,58.58
2024-01-12T15:00:55.184Z,57.77
2024-01-12T15:04:06.637Z,58.19
2024-01-12T15:07:17.819Z,58.12
2024-01-12T15:10:20.255Z,63.14
2024-01-12T15:13:22.825Z,57.82
2024-01-12T15:16:26.111Z,63.30
2024-01-12T15:19:28.852Z,59.92
2024-01-12T15:22:31.241Z,58.00
2024-01-12T15:25:34.246Z,57.50
2024-01-12T15:28:36.681Z,56.75
2024-01-12T15:31:39.435Z,59.73
2024-01-12T15:34:41.888Z,58.34
2024-01-12T15:37:44.420Z,57.14
2024-01-12T15:40:46.758Z,57.13
2024-01-12T15:43:49.193Z,56.98
2024-01-12T15:46:51.320Z,58.43
2024-01-12T15:49:54.029Z,57.78
2024-01-12T15:52:58.179Z,57.60
2024-01-12T15:56:00.704Z,59.08
2024-01-12T15:59:02.889Z,58.02
2024-01-12T16:02:05.372Z,59.38
2024-01-12T16:05:08.331Z,58.09
2024-01-12T16:08:10.498Z,58.28
2024-01-12T16:11:20.061Z,60.06
2024-01-12T16:14:22.432Z,59.83
2024-01-12T16:17:25.175Z,58.32
2024-01-12T16:20:27.502Z,57.38
2024-01-12T16:23:30.058Z,57.76
2024-01-12T16:26:38.960Z,59.71
2024-01-12T16:29:41.570Z,59.39
2024-01-12T16:32:45.463Z,58.60
2024-01-12T16:35:49.189Z,58.93
2024-01-12T16:38:51.392Z,59.25
2024-01-12T16:41:57.110Z,57.74
2024-01-12T16:45:00.916Z,58.50
2024-01-12T16:48:04.692Z,60.25
